Time;durP1;ratioP1;P1;durP2;ratioP2;P2;SDS_P1;SDS_P2;PMS_P1;PMS_P2;Temp;Humidity;BMP_temperature;BMP_pressure;BME280_temperature;BME280_humidity;BME280_pressure;Samples;Min_cycle;Max_cycle;Signal;HPM_P1;HPM_P2
2020/12/19 00:01:43;;;;;;;22.63;13.27;;;3.90;99.90;;;;;;5018741;28;20523;-62
2020/12/19 00:04:10;;;;;;;26.37;13.37;;;3.80;99.90;;;;;;5019115;28;20456;-62
2020/12/19 00:06:36;;;;;;;21.63;12.00;;;3.80;99.90;;;;;;5019118;28;20461;-63
2020/12/19 00:09:02;;;;;;;23.37;13.03;;;3.90;99.90;;;;;;5019043;28;20477;-63
2020/12/19 00:11:28;;;;;;;21.87;11.73;;;3.90;99.90;;;;;;5019058;28;20461;-63
2020/12/19 00:13:55;;;;;;;22.70;13.70;;;3.80;99.90;;;;;;5018345;28;20460;-62
2020/12/19 00:16:21;;;;;;;25.60;14.73;;;3.70;99.90;;;;;;5018601;28;20778;-62
2020/12/19 00:18:47;;;;;;;27.03;13.57;;;3.80;99.90;;;;;;5018796;28;20453;-63
2020/12/19 00:21:14;;;;;;;22.60;13.03;;;3.80;99.90;;;;;;5018933;28;20453;-63
2020/12/19 00:23:40;;;;;;;25.33;13.30;;;3.80;99.90;;;;;;5018628;28;20487;-62
2020/12/19 00:26:06;;;;;;;24.97;12.80;;;3.80;99.90;;;;;;5018495;28;20460;-62
2020/12/19 00:28:32;;;;;;;24.30;13.27;;;3.80;99.90;;;;;;5018652;28;20505;-62
2020/12/19 00:30:58;;;;;;;23.47;12.43;;;3.80;99.90;;;;;;5018262;28;20460;-62
2020/12/19 00:33:25;;;;;;;20.50;12.43;;;3.90;99.90;;;;;;5018226;28;20461;-62
2020/12/19 00:35:51;;;;;;;23.60;13.23;;;3.80;99.90;;;;;;5018692;28;20456;-63
2020/12/19 00:38:18;;;;;;;25.13;12.40;;;3.80;99.90;;;;;;5018229;28;20546;-63
2020/12/19 00:40:45;;;;;;;22.00;12.73;;;3.90;99.90;;;;;;5018212;28;20484;-61
2020/12/19 00:43:11;;;;;;;22.20;12.33;;;3.80;99.90;;;;;;5018179;28;20468;-63
2020/12/19 00:45:37;;;;;;;21.10;12.90;;;3.90;99.90;;;;;;5018489;28;20595;-63
2020/12/19 00:48:03;;;;;;;26.27;13.00;;;3.80;99.90;;;;;;5017935;28;20551;-63
2020/12/19 00:50:29;;;;;;;26.07;13.07;;;3.80;99.90;;;;;;5017961;28;20467;-62
2020/12/19 00:52:55;;;;;;;20.27;13.53;;;3.70;99.90;;;;;;5018986;28;20985;-62
2020/12/19 00:55:22;;;;;;;24.77;13.17;;;3.70;99.90;;;;;;5018595;28;20457;-62
2020/12/19 00:57:48;;;;;;;26.53;13.13;;;3.70;99.90;;;;;;5018195;28;20785;-62
2020/12/19 01:00:14;;;;;;;25.57;13.67;;;3.70;99.90;;;;;;5018556;28;20523;-62
2020/12/19 01:02:40;;;;;;;26.27;14.30;;;3.70;99.90;;;;;;5018884;28;20465;-63
2020/12/19 01:05:08;;;;;;;25.83;13.80;;;3.60;99.90;;;;;;5018870;28;20461;-62
2020/12/19 01:07:36;;;;;;;23.00;13.90;;;3.60;99.90;;;;;;5018921;28;20496;-61
2020/12/19 01:10:03;;;;;;;22.47;13.77;;;3.50;99.90;;;;;;5018727;28;20480;-62
2020/12/19 01:12:30;;;;;;;23.27;13.80;;;3.50;99.90;;;;;;5018147;28;20480;-62
2020/12/19 01:14:56;;;;;;;24.90;13.83;;;3.50;99.90;;;;;;5018594;28;20567;-62
2020/12/19 01:17:22;;;;;;;19.63;12.93;;;3.50;99.90;;;;;;5018627;28;20779;-62
2020/12/19 01:19:48;;;;;;;23.53;12.60;;;3.40;99.90;;;;;;5017919;28;20453;-62
2020/12/19 01:22:14;;;;;;;21.80;14.43;;;3.40;99.90;;;;;;5018836;28;20498;-62
2020/12/19 01:24:40;;;;;;;27.30;14.40;;;3.50;99.90;;;;;;5018143;28;20457;-62
2020/12/19 01:27:08;;;;;;;19.00;11.60;;;3.50;99.90;;;;;;5018379;28;20461;-62
2020/12/19 01:29:35;;;;;;;24.87;14.03;;;3.40;99.90;;;;;;5017737;28;20493;-62
2020/12/19 01:32:01;;;;;;;30.07;13.87;;;3.50;99.90;;;;;;5017748;28;20496;-62
2020/12/19 01:34:27;;;;;;;23.53;12.40;;;3.50;99.90;;;;;;5017401;28;20461;-62
2020/12/19 01:36:53;;;;;;;21.97;13.00;;;3.50;99.90;;;;;;5017326;28;20457;-62
2020/12/19 01:39:19;;;;;;;19.80;13.17;;;3.50;99.90;;;;;;5017442;28;20987;-62
2020/12/19 01:41:45;;;;;;;23.70;13.87;;;3.50;99.90;;;;;;5017300;28;20461;-62
2020/12/19 01:44:11;;;;;;;21.20;13.13;;;3.50;99.90;;;;;;5017545;28;20472;-61
2020/12/19 01:46:47;;;;;;;21.40;13.37;;;3.60;99.90;;;;;;5017119;28;20457;-63
2020/12/19 01:49:13;;;;;;;21.47;12.50;;;3.60;99.90;;;;;;5016984;28;20464;-62
2020/12/19 01:51:40;;;;;;;22.23;13.43;;;3.60;99.90;;;;;;5017341;28;20465;-61
2020/12/19 01:54:07;;;;;;;20.50;11.77;;;3.60;99.90;;;;;;5016931;28;20465;-62
2020/12/19 01:56:48;;;;;;;20.37;13.00;;;3.50;99.90;;;;;;5016674;28;20519;-62
2020/12/19 01:59:15;;;;;;;21.67;12.60;;;3.60;99.90;;;;;;5016725;28;20530;-61
2020/12/19 02:01:44;;;;;;;22.90;12.70;;;3.50;99.90;;;;;;5017532;28;20488;-62
2020/12/19 02:04:10;;;;;;;21.07;12.30;;;3.50;99.90;;;;;;5016667;28;20500;-63
2020/12/19 02:06:36;;;;;;;24.47;14.30;;;3.50;99.90;;;;;;5016493;28;20472;-62
2020/12/19 02:09:04;;;;;;;23.70;14.90;;;3.50;99.90;;;;;;5016421;28;20477;-62
2020/12/19 02:11:30;;;;;;;23.13;13.63;;;3.60;99.90;;;;;;5016431;28;20461;-63
2020/12/19 02:13:56;;;;;;;23.90;14.00;;;3.60;99.90;;;;;;5016168;28;20483;-62
2020/12/19 02:16:22;;;;;;;26.00;14.43;;;3.60;99.90;;;;;;5016010;28;20808;-61
2020/12/19 02:18:49;;;;;;;25.27;13.53;;;3.60;99.90;;;;;;5016095;28;20457;-62
2020/12/19 02:21:15;;;;;;;18.80;12.57;;;3.60;99.90;;;;;;5016454;28;20461;-62
2020/12/19 02:23:42;;;;;;;21.07;12.20;;;3.60;99.90;;;;;;5016431;28;20489;-62
2020/12/19 02:26:08;;;;;;;20.00;12.90;;;3.60;99.90;;;;;;5016130;28;20663;-62
2020/12/19 02:28:34;;;;;;;19.87;13.47;;;3.60;99.90;;;;;;5015845;28;20489;-62
2020/12/19 02:31:01;;;;;;;21.17;13.47;;;3.60;99.90;;;;;;5016224;28;20461;-62
2020/12/19 02:33:27;;;;;;;21.90;12.10;;;3.60;99.90;;;;;;5016104;28;20456;-62
2020/12/19 02:35:53;;;;;;;20.13;12.30;;;3.60;99.90;;;;;;5015836;28;20464;-62
2020/12/19 02:38:19;;;;;;;23.50;13.27;;;3.60;99.90;;;;;;5015974;28;20468;-63
2020/12/19 02:40:46;;;;;;;28.93;13.60;;;3.60;99.90;;;;;;5015827;28;20953;-63
2020/12/19 02:43:12;;;;;;;19.50;11.57;;;3.50;99.90;;;;;;5016020;28;20461;-62
2020/12/19 02:45:38;;;;;;;22.70;13.10;;;3.50;99.90;;;;;;5015829;28;20518;-62
2020/12/19 02:48:04;;;;;;;25.40;13.93;;;3.50;99.90;;;;;;5016207;28;20476;-62
2020/12/19 02:50:30;;;;;;;20.73;12.50;;;3.40;99.90;;;;;;5016032;28;20468;-62
2020/12/19 02:52:56;;;;;;;20.30;12.17;;;3.40;99.90;;;;;;5015311;28;20465;-62
2020/12/19 02:55:22;;;;;;;23.97;13.10;;;3.40;99.90;;;;;;5015921;28;20457;-63
2020/12/19 02:57:49;;;;;;;21.17;13.40;;;3.40;99.90;;;;;;5015642;28;20465;-62
2020/12/19 03:00:15;;;;;;;22.33;13.00;;;3.30;99.90;;;;;;5015422;28;20472;-62
2020/12/19 03:02:41;;;;;;;21.87;14.37;;;3.30;99.90;;;;;;5015511;28;20612;-62
2020/12/19 03:05:07;;;;;;;20.47;12.73;;;3.30;99.90;;;;;;5015636;28;20460;-61
2020/12/19 03:07:33;;;;;;;20.13;13.20;;;3.20;99.90;;;;;;5015482;28;20464;-62
2020/12/19 03:09:59;;;;;;;24.17;13.33;;;3.20;99.90;;;;;;5015423;28;20861;-62
2020/12/19 03:12:25;;;;;;;22.60;12.60;;;3.20;99.90;;;;;;5015539;28;20471;-61
2020/12/19 03:14:52;;;;;;;23.73;13.20;;;3.20;99.90;;;;;;5015399;28;20461;-62
2020/12/19 03:17:18;;;;;;;22.83;14.30;;;3.20;99.90;;;;;;5015383;28;20789;-62
2020/12/19 03:19:45;;;;;;;20.37;11.50;;;3.20;99.90;;;;;;5015669;28;20461;-62
2020/12/19 03:22:11;;;;;;;22.33;12.70;;;3.20;99.90;;;;;;5015275;28;20465;-62
2020/12/19 03:24:37;;;;;;;20.27;11.63;;;3.20;99.90;;;;;;5015649;28;20465;-62
2020/12/19 03:27:03;;;;;;;20.87;11.40;;;3.20;99.90;;;;;;5015352;28;20491;-61
2020/12/19 03:29:29;;;;;;;25.00;12.57;;;3.20;99.90;;;;;;5014823;28;20493;-63
2020/12/19 03:31:56;;;;;;;15.93;11.77;;;3.30;99.90;;;;;;5016184;28;20779;-62
2020/12/19 03:34:22;;;;;;;20.43;12.93;;;3.30;99.90;;;;;;5019392;28;20499;-64
2020/12/19 03:36:48;;;;;;;26.30;13.47;;;3.40;99.90;;;;;;5019324;28;20503;-63
2020/12/19 03:39:14;;;;;;;19.10;11.77;;;3.30;99.90;;;;;;5019095;28;20558;-62
2020/12/19 03:41:40;;;;;;;19.13;11.83;;;3.40;99.90;;;;;;5019201;28;20494;-62
2020/12/19 03:44:06;;;;;;;23.43;12.97;;;3.40;99.90;;;;;;5019058;28;20467;-61
2020/12/19 03:46:32;;;;;;;20.33;12.50;;;3.40;99.90;;;;;;5019222;28;20471;-62
2020/12/19 03:48:59;;;;;;;23.27;11.73;;;3.50;99.90;;;;;;5018978;28;20512;-63
2020/12/19 03:51:25;;;;;;;22.27;12.87;;;3.40;99.90;;;;;;5018884;28;20800;-62
2020/12/19 03:53:51;;;;;;;17.20;11.30;;;3.40;99.90;;;;;;5018973;28;20457;-62
2020/12/19 03:56:17;;;;;;;21.30;12.13;;;3.40;99.90;;;;;;5018732;28;20548;-62
2020/12/19 03:58:43;;;;;;;18.97;12.20;;;3.30;99.90;;;;;;5019049;28;20495;-61
2020/12/19 04:01:09;;;;;;;15.97;10.80;;;3.30;99.90;;;;;;5018806;28;20457;-62
2020/12/19 04:03:35;;;;;;;22.30;12.10;;;3.30;99.90;;;;;;5018740;28;20543;-62
2020/12/19 04:06:02;;;;;;;23.03;12.57;;;3.30;99.90;;;;;;5018665;28;20488;-62
2020/12/19 04:08:28;;;;;;;22.73;11.90;;;3.30;99.90;;;;;;5018645;28;20488;-65
2020/12/19 04:10:54;;;;;;;23.30;13.27;;;3.30;99.90;;;;;;5018917;28;20457;-61
2020/12/19 04:13:20;;;;;;;23.80;12.60;;;3.20;99.90;;;;;;5018246;28;20467;-62
2020/12/19 04:15:46;;;;;;;22.33;11.17;;;3.30;99.90;;;;;;5018561;28;20456;-62
2020/12/19 04:18:12;;;;;;;19.40;11.60;;;3.30;99.90;;;;;;5018703;28;20786;-61
2020/12/19 04:20:38;;;;;;;20.43;12.43;;;3.30;99.90;;;;;;5018757;28;20464;-63
2020/12/19 04:23:05;;;;;;;19.20;12.33;;;3.30;99.90;;;;;;5018465;28;20532;-62
2020/12/19 04:25:31;;;;;;;20.17;12.03;;;3.20;99.90;;;;;;5018872;28;20465;-62
2020/12/19 04:27:57;;;;;;;18.83;12.37;;;3.20;99.90;;;;;;5018708;28;20532;-61
2020/12/19 04:30:24;;;;;;;16.87;11.50;;;3.30;99.90;;;;;;5018596;28;20535;-62
2020/12/19 04:32:50;;;;;;;17.20;10.50;;;3.20;99.90;;;;;;5018329;28;20465;-61
2020/12/19 04:35:16;;;;;;;21.70;11.73;;;3.30;99.90;;;;;;5018242;28;20468;-61
2020/12/19 04:37:42;;;;;;;21.10;12.40;;;3.20;99.90;;;;;;5018174;28;20822;-61
2020/12/19 04:40:09;;;;;;;18.60;11.80;;;3.20;99.90;;;;;;5018176;28;20453;-62
2020/12/19 04:42:36;;;;;;;19.37;11.90;;;3.20;99.90;;;;;;5017805;28;20453;-62
2020/12/19 04:45:03;;;;;;;20.50;12.00;;;3.20;99.90;;;;;;5018091;28;20579;-61
2020/12/19 04:47:30;;;;;;;22.80;12.73;;;3.20;99.90;;;;;;5017715;28;20508;-63
2020/12/19 04:49:58;;;;;;;19.87;11.80;;;3.20;99.90;;;;;;5018107;28;21101;-62
2020/12/19 04:52:24;;;;;;;21.90;12.10;;;3.20;99.90;;;;;;5018176;28;20489;-61
2020/12/19 04:54:51;;;;;;;18.70;10.63;;;3.20;99.90;;;;;;5017916;28;20465;-63
2020/12/19 04:57:19;;;;;;;18.53;12.70;;;3.20;99.90;;;;;;5018907;28;20456;-63
2020/12/19 04:59:46;;;;;;;20.27;12.57;;;3.20;99.90;;;;;;5018147;28;20457;-63
2020/12/19 05:02:13;;;;;;;19.10;12.07;;;3.10;99.90;;;;;;5017854;28;20461;-63
2020/12/19 05:04:40;;;;;;;22.40;12.00;;;3.10;99.90;;;;;;5017690;28;20465;-63
2020/12/19 05:07:07;;;;;;;21.80;12.20;;;3.00;99.90;;;;;;5017750;28;20456;-62
2020/12/19 05:09:36;;;;;;;25.70;13.57;;;3.00;99.90;;;;;;5017521;28;20491;-62
2020/12/19 05:12:03;;;;;;;18.37;11.37;;;3.00;99.90;;;;;;5019097;28;20457;-62
2020/12/19 05:14:31;;;;;;;20.40;10.80;;;3.00;99.90;;;;;;5017999;28;20495;-62
2020/12/19 05:16:58;;;;;;;22.10;12.30;;;3.00;99.90;;;;;;5017238;28;20496;-63
2020/12/19 05:19:26;;;;;;;20.20;12.13;;;3.00;99.90;;;;;;5017638;28;20457;-63
2020/12/19 05:21:54;;;;;;;25.87;13.97;;;3.00;99.90;;;;;;5017345;28;20457;-62
2020/12/19 05:24:26;;;;;;;20.93;11.83;;;3.00;99.90;;;;;;5017718;28;20457;-63
2020/12/19 05:26:52;;;;;;;22.70;12.70;;;3.00;99.90;;;;;;5017342;28;20552;-62
2020/12/19 05:29:19;;;;;;;19.67;12.10;;;3.00;99.90;;;;;;5016618;28;20485;-61
2020/12/19 05:31:55;;;;;;;21.83;13.47;;;2.90;99.90;;;;;;5017163;28;20461;-62
2020/12/19 05:34:22;;;;;;;20.70;11.70;;;2.90;99.90;;;;;;5017113;28;20444;-63
2020/12/19 05:36:50;;;;;;;24.17;13.67;;;2.80;99.90;;;;;;5017168;28;20456;-62
2020/12/19 05:39:16;;;;;;;19.40;11.70;;;2.80;99.90;;;;;;5016967;28;20453;-63
2020/12/19 05:41:42;;;;;;;21.87;11.60;;;2.80;99.90;;;;;;5017060;28;20457;-61
2020/12/19 05:44:09;;;;;;;22.17;13.13;;;2.70;99.90;;;;;;5016823;28;20907;-62
2020/12/19 05:46:37;;;;;;;21.23;11.77;;;2.70;99.90;;;;;;5016504;28;20576;-61
2020/12/19 05:49:05;;;;;;;22.57;11.17;;;2.70;99.90;;;;;;5016756;28;20477;-62
2020/12/19 05:51:33;;;;;;;20.47;10.67;;;2.70;99.90;;;;;;5017023;28;20476;-61
2020/12/19 05:54:02;;;;;;;18.40;11.17;;;2.80;99.90;;;;;;5015903;28;20484;-63
2020/12/19 05:56:29;;;;;;;22.27;12.17;;;2.70;99.90;;;;;;5016038;28;20471;-62
2020/12/19 05:59:00;;;;;;;19.03;11.63;;;2.70;99.90;;;;;;5016824;28;20480;-62
2020/12/19 06:01:26;;;;;;;21.73;11.73;;;2.70;99.90;;;;;;5016702;28;20445;-62
2020/12/19 06:03:55;;;;;;;21.80;11.80;;;2.70;99.90;;;;;;5016555;28;20539;-63
2020/12/19 06:06:23;;;;;;;19.70;12.33;;;2.60;99.90;;;;;;5016657;28;20469;-62
2020/12/19 06:08:50;;;;;;;28.90;12.77;;;2.60;99.90;;;;;;5016566;28;20946;-62
2020/12/19 06:11:21;;;;;;;23.77;11.40;;;2.60;99.90;;;;;;5016395;28;20472;-62
2020/12/19 06:13:51;;;;;;;19.67;12.27;;;2.60;99.90;;;;;;5016656;28;20457;-61
2020/12/19 06:16:17;;;;;;;25.07;13.27;;;2.60;99.90;;;;;;5016451;28;20468;-62
2020/12/19 06:18:55;;;;;;;24.07;14.60;;;2.60;99.90;;;;;;5016294;28;20786;-62
2020/12/19 06:21:22;;;;;;;25.10;12.50;;;2.60;99.90;;;;;;5016385;28;20448;-63
2020/12/19 06:23:48;;;;;;;21.93;14.53;;;2.70;99.90;;;;;;5016213;28;20485;-62
2020/12/19 06:26:14;;;;;;;26.53;14.43;;;2.70;99.90;;;;;;5016052;28;20927;-61
2020/12/19 06:28:48;;;;;;;27.20;15.03;;;2.70;99.90;;;;;;5016035;28;20796;-62
2020/12/19 06:31:17;;;;;;;28.67;14.57;;;2.70;99.90;;;;;;5016000;28;20453;-62
2020/12/19 06:33:46;;;;;;;23.57;13.33;;;2.70;99.90;;;;;;5016153;28;20467;-62
2020/12/19 06:36:21;;;;;;;27.63;13.60;;;2.70;99.90;;;;;;5016477;28;20461;-62
2020/12/19 06:38:49;;;;;;;25.07;12.83;;;2.80;99.90;;;;;;5016156;28;20461;-61
2020/12/19 06:41:48;;;;;;;21.30;13.17;;;2.70;99.90;;;;;;5015682;28;20456;-61
2020/12/19 06:44:17;;;;;;;22.03;12.87;;;2.80;99.90;;;;;;5016499;28;20441;-61
2020/12/19 06:46:44;;;;;;;26.67;12.33;;;2.70;99.90;;;;;;5015801;28;20469;-61
2020/12/19 06:49:37;;;;;;;23.60;13.97;;;2.70;99.90;;;;;;5015718;28;20477;-60
2020/12/19 06:52:08;;;;;;;23.20;12.53;;;2.70;99.90;;;;;;5015744;28;20531;-60
2020/12/19 06:54:36;;;;;;;22.80;12.77;;;2.70;99.90;;;;;;5015977;28;20437;-60
2020/12/19 06:57:03;;;;;;;27.13;13.77;;;2.80;99.90;;;;;;5015414;28;20457;-61
2020/12/19 06:59:31;;;;;;;21.87;12.37;;;2.80;99.90;;;;;;5015511;28;20505;-61
2020/12/19 07:02:13;;;;;;;25.43;12.70;;;2.80;99.90;;;;;;5015524;28;20507;-59
2020/12/19 07:04:39;;;;;;;23.40;13.73;;;2.80;99.90;;;;;;5015442;28;20788;-62
2020/12/19 07:07:08;;;;;;;22.73;13.33;;;2.80;99.90;;;;;;5015228;28;20824;-60
2020/12/19 07:09:35;;;;;;;26.77;14.13;;;2.80;99.90;;;;;;5015337;28;20472;-61
2020/12/19 07:12:01;;;;;;;20.03;11.50;;;2.80;99.90;;;;;;5015116;28;20488;-62
2020/12/19 07:14:40;;;;;;;23.73;13.80;;;2.80;99.90;;;;;;5015477;28;20496;-61
2020/12/19 07:17:19;;;;;;;24.60;13.40;;;2.80;99.90;;;;;;5015359;28;20790;-61
2020/12/19 07:19:45;;;;;;;21.83;12.50;;;2.80;99.90;;;;;;5015575;28;20488;-61
2020/12/19 07:22:12;;;;;;;25.00;14.40;;;2.80;99.90;;;;;;5015316;28;20460;-60
2020/12/19 07:24:39;;;;;;;21.73;13.10;;;2.80;99.90;;;;;;5015712;28;20468;-60
2020/12/19 07:27:05;;;;;;;27.40;12.87;;;2.80;99.90;;;;;;5015235;28;20461;-61
2020/12/19 07:29:32;;;;;;;21.83;13.20;;;2.80;99.90;;;;;;5014916;28;20857;-60
2020/12/19 07:32:00;;;;;;;25.40;13.57;;;2.90;99.90;;;;;;5015526;28;20540;-60
2020/12/19 07:34:27;;;;;;;22.20;13.60;;;2.90;99.90;;;;;;5014971;28;20457;-60
2020/12/19 07:36:54;;;;;;;25.30;13.80;;;2.90;99.90;;;;;;5015018;28;20468;-62
2020/12/19 07:39:22;;;;;;;22.70;13.97;;;3.00;99.90;;;;;;5015167;28;20453;-61
2020/12/19 07:42:01;;;;;;;23.50;13.57;;;3.00;99.90;;;;;;5015397;28;20471;-61
2020/12/19 07:44:28;;;;;;;29.10;14.37;;;3.00;99.90;;;;;;5016025;28;20445;-60
2020/12/19 07:46:56;;;;;;;25.47;13.90;;;3.00;99.90;;;;;;5015363;28;20457;-61
2020/12/19 07:49:38;;;;;;;20.87;13.27;;;3.10;99.90;;;;;;5015107;28;20477;-61
2020/12/19 07:52:10;;;;;;;24.07;13.70;;;3.10;99.90;;;;;;5015068;28;20445;-60
2020/12/19 07:54:37;;;;;;;21.47;13.37;;;3.00;99.90;;;;;;5015248;28;20445;-61
2020/12/19 07:57:05;;;;;;;26.10;15.40;;;3.00;99.90;;;;;;5015172;28;20910;-61
2020/12/19 07:59:32;;;;;;;22.60;14.10;;;3.10;99.90;;;;;;5015077;28;20936;-60
2020/12/19 08:02:03;;;;;;;25.13;12.40;;;3.10;99.90;;;;;;5014973;28;20453;-60
2020/12/19 08:04:30;;;;;;;24.17;13.67;;;3.10;99.90;;;;;;5015144;28;20472;-60
2020/12/19 08:06:57;;;;;;;20.63;13.70;;;3.20;99.90;;;;;;5015128;28;20488;-61
2020/12/19 08:09:23;;;;;;;18.00;12.23;;;3.20;99.90;;;;;;5014829;28;20965;-61
2020/12/19 08:11:51;;;;;;;26.13;12.90;;;3.30;99.90;;;;;;5015111;28;20472;-61
2020/12/19 08:14:18;;;;;;;23.57;13.23;;;3.30;99.90;;;;;;5015015;28;20918;-61
2020/12/19 08:16:45;;;;;;;25.53;13.50;;;3.20;99.90;;;;;;5014793;28;20461;-60
2020/12/19 08:19:14;;;;;;;20.87;12.77;;;3.20;99.90;;;;;;5017666;28;20457;-61
2020/12/19 08:21:45;;;;;;;22.67;12.53;;;3.20;99.90;;;;;;5018240;28;20961;-60
2020/12/19 08:24:11;;;;;;;21.80;12.10;;;3.30;99.90;;;;;;5018854;28;20456;-62
2020/12/19 08:26:37;;;;;;;21.60;13.43;;;3.30;99.90;;;;;;5018559;28;20885;-61
2020/12/19 08:29:06;;;;;;;19.77;13.07;;;3.40;99.90;;;;;;5018177;28;20915;-61
2020/12/19 08:31:35;;;;;;;22.40;13.67;;;3.40;99.90;;;;;;5017814;28;20492;-61
2020/12/19 08:34:04;;;;;;;22.40;12.77;;;3.40;99.90;;;;;;5018291;28;20467;-61
2020/12/19 08:36:31;;;;;;;23.87;12.80;;;3.40;99.90;;;;;;5018103;28;20457;-61
2020/12/19 08:39:14;;;;;;;21.27;12.87;;;3.50;99.90;;;;;;5018697;28;20463;-60
2020/12/19 08:41:40;;;;;;;17.30;10.67;;;3.50;99.90;;;;;;5017974;28;20475;-62
2020/12/19 08:44:06;;;;;;;23.40;13.20;;;3.50;99.90;;;;;;5018026;28;20798;-62
2020/12/19 08:46:32;;;;;;;30.00;13.97;;;3.50;99.90;;;;;;5017704;28;20461;-60
2020/12/19 08:49:02;;;;;;;24.93;12.20;;;3.50;99.90;;;;;;5017628;28;20958;-61
2020/12/19 08:51:28;;;;;;;22.73;13.30;;;3.50;99.90;;;;;;5017818;28;20632;-61
2020/12/19 08:54:10;;;;;;;21.17;12.43;;;3.60;99.90;;;;;;5017905;28;20469;-59
2020/12/19 08:56:36;;;;;;;21.27;12.97;;;3.70;99.90;;;;;;5017590;28;20903;-60
2020/12/19 08:59:02;;;;;;;19.27;11.90;;;3.80;99.90;;;;;;5017791;28;20457;-62
2020/12/19 09:01:31;;;;;;;20.10;12.43;;;3.80;99.90;;;;;;5017883;28;20464;-61
2020/12/19 09:04:09;;;;;;;18.57;12.23;;;3.80;99.90;;;;;;5017617;28;20457;-61
2020/12/19 09:06:45;;;;;;;20.53;11.93;;;3.80;99.90;;;;;;5017850;28;20533;-61
2020/12/19 09:09:16;;;;;;;18.93;13.50;;;3.90;99.90;;;;;;5017899;28;20484;-64
2020/12/19 09:11:42;;;;;;;19.63;13.20;;;4.00;99.90;;;;;;5018822;28;20445;-61
2020/12/19 09:14:10;;;;;;;22.30;13.27;;;4.00;99.90;;;;;;5018370;28;20914;-61
2020/12/19 09:16:46;;;;;;;22.27;12.60;;;4.10;99.90;;;;;;5017229;28;20483;-60
2020/12/19 09:19:13;;;;;;;23.83;12.57;;;4.20;99.90;;;;;;5017034;28;20917;-61
2020/12/19 09:21:39;;;;;;;21.63;12.20;;;4.30;99.90;;;;;;5017389;28;20468;-61
2020/12/19 09:24:09;;;;;;;17.60;11.47;;;4.40;99.90;;;;;;5017472;28;20461;-61
2020/12/19 09:26:35;;;;;;;19.13;13.30;;;4.50;99.90;;;;;;5017536;28;20519;-62
2020/12/19 09:29:01;;;;;;;19.07;11.23;;;4.50;99.90;;;;;;5016071;28;20531;-60
2020/12/19 09:31:28;;;;;;;19.30;12.87;;;4.60;99.90;;;;;;5017220;28;20456;-62
2020/12/19 09:33:54;;;;;;;17.60;11.80;;;4.70;99.90;;;;;;5017001;28;20465;-60
2020/12/19 09:36:21;;;;;;;18.60;11.60;;;4.80;99.90;;;;;;5017339;28;20493;-60
2020/12/19 09:38:48;;;;;;;16.10;10.37;;;4.80;99.90;;;;;;5017207;28;20463;-61
2020/12/19 09:41:14;;;;;;;20.33;11.30;;;4.90;99.90;;;;;;5018587;28;20535;-61
2020/12/19 09:43:40;;;;;;;19.50;12.33;;;4.90;99.90;;;;;;5018000;28;20476;-60
2020/12/19 09:46:06;;;;;;;17.87;11.00;;;4.90;99.90;;;;;;5016706;28;20495;-60
2020/12/19 09:48:32;;;;;;;16.80;10.70;;;4.90;99.90;;;;;;5016723;28;20472;-62
2020/12/19 09:50:59;;;;;;;16.10;10.63;;;4.90;99.90;;;;;;5016792;28;20522;-61
2020/12/19 09:53:27;;;;;;;19.53;11.43;;;5.00;99.90;;;;;;5017253;28;20461;-61
2020/12/19 09:55:54;;;;;;;19.67;12.30;;;5.10;99.90;;;;;;5016677;28;20456;-60
2020/12/19 09:58:21;;;;;;;17.33;11.50;;;5.20;99.90;;;;;;5016775;28;20511;-60
2020/12/19 10:00:47;;;;;;;23.73;11.37;;;5.20;99.90;;;;;;5016607;28;20472;-60
2020/12/19 10:03:13;;;;;;;16.63;10.50;;;5.30;99.90;;;;;;5016883;28;20461;-61
2020/12/19 10:05:39;;;;;;;17.60;11.80;;;5.30;99.90;;;;;;5016869;28;20461;-61
2020/12/19 10:08:06;;;;;;;18.10;11.90;;;5.30;99.90;;;;;;5017152;28;20844;-61
2020/12/19 10:10:34;;;;;;;18.83;11.53;;;5.30;99.90;;;;;;5018510;28;20515;-61
2020/12/19 10:13:00;;;;;;;15.97;10.57;;;5.30;99.90;;;;;;5017902;28;20453;-61
2020/12/19 10:15:26;;;;;;;16.87;10.80;;;5.40;99.90;;;;;;5018404;28;20457;-61
2020/12/19 10:17:53;;;;;;;18.90;11.53;;;5.50;99.90;;;;;;5018602;28;20480;-61
2020/12/19 10:20:19;;;;;;;15.13;9.60;;;5.50;99.90;;;;;;5017778;28;20464;-62
2020/12/19 10:22:46;;;;;;;14.83;10.00;;;5.60;99.90;;;;;;5016964;28;20460;-60
2020/12/19 10:25:12;;;;;;;13.70;10.03;;;5.70;99.90;;;;;;5017056;28;20954;-60
2020/12/19 10:27:40;;;;;;;16.30;10.20;;;5.70;99.90;;;;;;5017230;28;20541;-61
2020/12/19 10:30:06;;;;;;;14.53;9.70;;;5.70;99.90;;;;;;5016948;28;20465;-62
2020/12/19 10:32:32;;;;;;;14.50;10.03;;;5.80;99.90;;;;;;5016277;28;20472;-61
2020/12/19 10:35:00;;;;;;;15.67;10.40;;;5.80;99.90;;;;;;5016132;28;20518;-61
2020/12/19 10:37:27;;;;;;;15.37;9.90;;;5.90;99.90;;;;;;5016734;28;20799;-60
2020/12/19 10:39:53;;;;;;;19.43;10.57;;;5.90;99.90;;;;;;5018425;28;20818;-62
2020/12/19 10:42:19;;;;;;;16.80;10.50;;;5.90;99.90;;;;;;5017004;28;20934;-63
2020/12/19 10:44:46;;;;;;;15.40;10.03;;;6.00;99.90;;;;;;5019493;28;20456;-64
2020/12/19 10:47:12;;;;;;;14.23;8.80;;;6.00;99.90;;;;;;5016963;28;20464;-63
2020/12/19 10:49:38;;;;;;;13.07;9.20;;;6.10;99.90;;;;;;5016112;28;20543;-62
2020/12/19 10:52:05;;;;;;;15.70;10.07;;;6.20;99.90;;;;;;5016631;28;20457;-64
2020/12/19 10:54:31;;;;;;;12.90;9.90;;;6.20;99.90;;;;;;5016478;28;20927;-64
2020/12/19 10:56:57;;;;;;;18.03;10.20;;;6.30;99.90;;;;;;5015524;28;20475;-64
2020/12/19 10:59:23;;;;;;;15.07;9.63;;;6.20;99.90;;;;;;5015803;28;20464;-63
2020/12/19 11:01:50;;;;;;;16.20;10.70;;;6.20;99.90;;;;;;5016033;28;20944;-64
2020/12/19 11:04:16;;;;;;;15.93;10.73;;;6.20;99.90;;;;;;5016457;28;20464;-64
2020/12/19 11:06:42;;;;;;;12.27;9.20;;;6.20;99.90;;;;;;5016341;28;20469;-63
2020/12/19 11:09:09;;;;;;;18.80;9.90;;;6.30;99.90;;;;;;5016282;28;20477;-64
2020/12/19 11:11:35;;;;;;;16.23;9.00;;;6.30;99.90;;;;;;5019068;28;20453;-64
2020/12/19 11:14:01;;;;;;;12.90;10.17;;;6.40;99.90;;;;;;5015738;28;20469;-65
2020/12/19 11:16:28;;;;;;;17.77;10.63;;;6.40;99.90;;;;;;5015389;28;20461;-65
2020/12/19 11:18:56;;;;;;;13.60;9.07;;;6.50;99.90;;;;;;5016153;28;20453;-63
2020/12/19 11:21:23;;;;;;;13.10;9.70;;;6.50;99.90;;;;;;5017735;28;20461;-65
2020/12/19 11:23:49;;;;;;;14.27;9.20;;;6.60;99.90;;;;;;5015341;28;20472;-64
2020/12/19 11:26:18;;;;;;;11.70;9.57;;;6.60;99.90;;;;;;5018134;28;20457;-62
2020/12/19 11:28:47;;;;;;;15.47;10.97;;;6.60;99.90;;;;;;5017910;28;20485;-67
2020/12/19 11:31:14;;;;;;;12.10;8.50;;;6.70;99.90;;;;;;5019197;28;20460;-63
2020/12/19 11:33:40;;;;;;;14.00;9.43;;;6.70;99.90;;;;;;5015348;28;20468;-63
2020/12/19 11:36:07;;;;;;;13.60;9.47;;;6.80;99.90;;;;;;5015795;28;20512;-63
2020/12/19 11:38:33;;;;;;;14.23;9.43;;;6.90;99.90;;;;;;5015474;28;20457;-63
2020/12/19 11:40:59;;;;;;;13.50;9.30;;;6.90;99.90;;;;;;5016275;28;20484;-63
2020/12/19 11:43:25;;;;;;;16.53;10.33;;;7.00;99.90;;;;;;5016033;28;20457;-62
2020/12/19 11:45:51;;;;;;;13.90;9.57;;;7.10;99.90;;;;;;5016619;28;20471;-62
2020/12/19 11:48:18;;;;;;;14.33;9.40;;;7.10;99.90;;;;;;5016180;28;20461;-63
2020/12/19 11:50:44;;;;;;;12.10;8.63;;;7.20;99.90;;;;;;5015760;28;20524;-62
2020/12/19 11:53:11;;;;;;;13.37;10.10;;;7.20;99.90;;;;;;5021311;28;20456;-63
2020/12/19 11:55:37;;;;;;;12.83;9.60;;;7.30;99.90;;;;;;5023121;28;20511;-62
2020/12/19 11:58:03;;;;;;;15.00;10.13;;;7.30;99.90;;;;;;5020877;28;20460;-62
2020/12/19 12:00:29;;;;;;;13.33;9.70;;;7.40;99.90;;;;;;5020180;28;20472;-62
2020/12/19 12:02:55;;;;;;;13.00;8.37;;;7.60;99.90;;;;;;5020106;28;20471;-62
2020/12/19 12:05:21;;;;;;;12.90;8.57;;;8.10;99.90;;;;;;5021095;28;20457;-63
2020/12/19 12:07:47;;;;;;;12.93;8.70;;;9.00;99.90;;;;;;5019384;28;20457;-62
2020/12/19 12:10:14;;;;;;;10.90;8.57;;;10.20;99.90;;;;;;5018816;28;20504;-63
2020/12/19 12:12:40;;;;;;;11.90;8.30;;;11.40;99.90;;;;;;5018999;28;20465;-63
2020/12/19 12:15:06;;;;;;;13.23;8.80;;;12.40;99.90;;;;;;5019044;28;20468;-64
2020/12/19 12:17:32;;;;;;;12.33;7.43;;;13.10;99.90;;;;;;5019523;28;20457;-64
2020/12/19 12:19:58;;;;;;;10.30;8.13;;;13.80;99.90;;;;;;5019368;28;20967;-63
2020/12/19 12:22:24;;;;;;;11.50;7.67;;;14.70;99.90;;;;;;5018959;28;20460;-63
2020/12/19 12:24:50;;;;;;;10.37;7.17;;;15.30;99.90;;;;;;5019390;28;20479;-64
2020/12/19 12:27:17;;;;;;;13.40;7.87;;;15.40;99.90;;;;;;5018940;28;20461;-64
2020/12/19 12:29:43;;;;;;;9.60;7.30;;;15.50;99.90;;;;;;5019930;28;20547;-64
2020/12/19 12:32:10;;;;;;;10.80;8.37;;;16.00;99.90;;;;;;5019245;28;20453;-63
2020/12/19 12:34:36;;;;;;;10.73;7.97;;;16.10;99.90;;;;;;5020212;28;20456;-63
2020/12/19 12:37:02;;;;;;;10.27;7.93;;;16.50;99.90;;;;;;5019298;28;20783;-64
2020/12/19 12:39:28;;;;;;;10.77;7.67;;;16.60;99.90;;;;;;5019908;28;20471;-64